createdAt,value
2019-01-11T00:00:43.536Z,4.70
2019-01-11T00:03:43.887Z,4.60
2019-01-11T00:06:43.835Z,4.60
2019-01-11T00:09:47.168Z,4.60
2019-01-11T00:12:46.559Z,4.60
2019-01-11T00:15:45.891Z,4.60
2019-01-11T00:18:45.259Z,4.60
2019-01-11T00:21:44.732Z,4.50
2019-01-11T00:24:43.993Z,4.50
2019-01-11T00:27:47.821Z,4.50
2019-01-11T00:30:47.186Z,4.50
2019-01-11T00:33:46.717Z,4.50
2019-01-11T00:36:46.076Z,4.50
2019-01-11T00:39:45.404Z,4.50
2019-01-11T00:42:44.719Z,4.40
2019-01-11T00:45:44.226Z,4.40
2019-01-11T00:51:48.050Z,4.40
2019-01-11T00:54:47.323Z,4.40
2019-01-11T00:57:46.514Z,4.40
2019-01-11T01:00:49.310Z,4.40
2019-01-11T01:03:49.120Z,4.40
2019-01-11T01:06:48.363Z,4.40
2019-01-11T01:09:47.935Z,4.30
2019-01-11T01:12:47.534Z,4.30
2019-01-11T01:15:50.718Z,4.40
2019-01-11T01:18:50.131Z,4.30
2019-01-11T01:21:49.536Z,4.30
2019-01-11T01:24:49.115Z,4.30
2019-01-11T01:27:48.437Z,4.30
2019-01-11T01:30:47.708Z,4.30
2019-01-11T01:33:51.950Z,4.20
2019-01-11T01:36:52.030Z,4.20
2019-01-11T01:39:51.281Z,4.20
2019-01-11T01:42:50.543Z,4.20
2019-01-11T01:45:50.488Z,4.20
2019-01-11T01:48:49.714Z,4.20
2019-01-11T01:51:49.132Z,4.20
2019-01-11T01:54:48.482Z,4.20
2019-01-11T01:57:47.801Z,4.20
2019-01-11T02:00:53.348Z,4.10
2019-01-11T02:03:53.543Z,4.10
2019-01-11T02:06:53.661Z,4.10
2019-01-11T02:09:53.786Z,4.10
2019-01-11T02:12:53.750Z,4.10
2019-01-11T02:15:53.247Z,4.10
2019-01-11T02:18:53.030Z,4.10
2019-01-11T02:21:54.414Z,4.10
2019-01-11T02:24:53.873Z,4.00
2019-01-11T02:27:54.234Z,4.00
2019-01-11T02:30:53.430Z,4.00
2019-01-11T02:33:56.209Z,4.00
2019-01-11T02:36:55.603Z,4.00
2019-01-11T02:39:55.087Z,4.00
2019-01-11T02:42:54.477Z,4.00
2019-01-11T02:45:53.884Z,4.00
2019-01-11T02:48:53.409Z,4.00
2019-01-11T02:51:56.671Z,3.90
2019-01-11T02:54:55.970Z,3.90
2019-01-11T02:57:55.829Z,3.90
2019-01-11T03:00:57.197Z,3.90
2019-01-11T03:03:56.478Z,3.90
2019-01-11T03:06:55.675Z,3.90
2019-01-11T03:09:58.422Z,3.90
2019-01-11T03:12:57.605Z,3.90
2019-01-11T03:15:56.991Z,3.80
2019-01-11T03:18:57.411Z,3.80
2019-01-11T03:21:56.753Z,3.80
2019-01-11T03:24:56.536Z,3.80
2019-01-11T03:27:56.591Z,3.80
2019-01-11T03:30:58.607Z,3.80
2019-01-11T03:33:58.594Z,3.80
2019-01-11T03:36:58.062Z,3.80
2019-01-11T03:39:58.113Z,3.80
2019-01-11T03:42:58.627Z,3.80
2019-01-11T03:45:58.156Z,3.80
2019-01-11T03:48:57.670Z,3.70
2019-01-11T03:51:57.629Z,3.70
2019-01-11T03:54:56.981Z,3.70
2019-01-11T03:57:56.277Z,3.70
2019-01-11T04:00:55.779Z,3.70
2019-01-11T04:03:55.168Z,3.70
2019-01-11T04:06:55.085Z,3.70
2019-01-11T04:09:55.996Z,3.70
2019-01-11T04:12:58.161Z,3.70
2019-01-11T04:15:57.725Z,3.70
2019-01-11T04:19:08.251Z,3.70
2019-01-11T04:22:43.060Z,3.60
2019-01-11T04:25:44.444Z,3.60
2019-01-11T04:28:44.419Z,3.60
2019-01-11T04:31:43.578Z,3.60
2019-01-11T04:34:43.564Z,3.60
2019-01-11T04:37:42.844Z,3.60
2019-01-11T04:40:42.719Z,3.60
2019-01-11T04:43:47.754Z,3.60
2019-01-11T04:46:47.000Z,3.60
2019-01-11T04:49:49.413Z,3.60
2019-01-11T04:52:51.223Z,3.60
2019-01-11T04:55:50.504Z,3.60
2019-01-11T04:58:50.629Z,3.60
2019-01-11T05:01:49.851Z,3.60
2019-01-11T05:04:52.854Z,3.60
2019-01-11T05:07:52.172Z,3.60
2019-01-11T05:11:01.755Z,3.50
2019-01-11T05:14:01.157Z,3.50
2019-01-11T05:17:01.584Z,3.50
2019-01-11T05:20:01.190Z,3.50
2019-01-11T05:23:02.333Z,3.50
2019-01-11T05:26:01.711Z,3.50
2019-01-11T05:29:07.990Z,3.50
2019-01-11T05:32:07.899Z,3.50
2019-01-11T05:35:07.882Z,3.50
2019-01-11T05:38:07.187Z,3.50
2019-01-11T05:41:08.434Z,3.50
2019-01-11T05:44:07.603Z,3.50
2019-01-11T05:47:07.847Z,3.40
2019-01-11T05:50:09.008Z,3.40
2019-01-11T05:53:08.306Z,3.40
2019-01-11T05:56:11.204Z,3.40
2019-01-11T05:59:10.685Z,3.40
2019-01-11T06:02:09.886Z,3.40
2019-01-11T06:05:11.568Z,3.40
2019-01-11T06:08:14.619Z,3.40
2019-01-11T06:11:13.891Z,3.40
2019-01-11T06:14:13.660Z,3.40
2019-01-11T06:17:12.991Z,3.40
2019-01-11T06:20:15.243Z,3.40
2019-01-11T06:23:15.634Z,3.40
2019-01-11T06:26:15.655Z,3.40
2019-01-11T06:29:14.913Z,3.40
2019-01-11T06:32:15.002Z,3.40
2019-01-11T06:35:14.307Z,3.40
2019-01-11T06:38:13.770Z,3.40
2019-01-11T06:41:13.090Z,3.30
2019-01-11T06:44:12.318Z,3.40
2019-01-11T06:47:12.423Z,3.30
2019-01-11T06:50:14.061Z,3.30
2019-01-11T06:53:13.290Z,3.40
2019-01-11T06:56:12.578Z,3.30
2019-01-11T06:59:11.870Z,3.30
2019-01-11T07:02:11.710Z,3.30
2019-01-11T07:05:11.491Z,3.30
2019-01-11T07:08:11.835Z,3.30
2019-01-11T07:11:11.974Z,3.30
2019-01-11T07:14:12.990Z,3.30
2019-01-11T07:17:12.437Z,3.30
2019-01-11T07:20:12.476Z,3.30
2019-01-11T07:23:12.658Z,3.30
2019-01-11T07:26:13.248Z,3.30
2019-01-11T07:29:13.669Z,3.30
2019-01-11T07:32:14.329Z,3.30
2019-01-11T07:35:15.031Z,3.30
2019-01-11T07:38:14.298Z,3.30
2019-01-11T07:41:14.349Z,3.30
2019-01-11T07:44:17.302Z,3.30
2019-01-11T07:47:16.527Z,3.30
2019-01-11T07:50:16.666Z,3.30
2019-01-11T07:53:16.053Z,3.30
2019-01-11T07:56:18.138Z,3.30
2019-01-11T07:59:18.815Z,3.30
2019-01-11T08:02:18.722Z,3.30
2019-01-11T08:05:18.179Z,3.30
2019-01-11T08:08:18.224Z,3.40
2019-01-11T08:11:19.925Z,3.40
2019-01-11T08:14:21.248Z,3.40
2019-01-11T08:17:20.539Z,3.40
2019-01-11T08:20:19.844Z,3.40
2019-01-11T08:23:21.174Z,3.40
2019-01-11T08:26:20.667Z,3.40
2019-01-11T08:29:19.946Z,3.40
2019-01-11T08:32:19.100Z,3.40
2019-01-11T08:35:18.514Z,3.50
2019-01-11T08:38:19.580Z,3.50
2019-01-11T08:41:18.803Z,3.50
2019-01-11T08:44:21.752Z,3.50
2019-01-11T08:47:20.996Z,3.50
2019-01-11T08:50:20.559Z,3.50
2019-01-11T08:53:19.866Z,3.50
2019-01-11T08:56:19.368Z,3.50
2019-01-11T08:59:19.046Z,3.50
2019-01-11T09:02:18.895Z,3.60
2019-01-11T09:05:26.370Z,3.60
2019-01-11T09:08:33.893Z,3.60
2019-01-11T09:11:33.711Z,3.60
2019-01-11T09:14:42.112Z,3.60
2019-01-11T09:18:26.728Z,3.60
2019-01-11T09:21:26.083Z,3.70
2019-01-11T09:24:25.459Z,3.70
2019-01-11T09:27:26.033Z,3.70
2019-01-11T09:30:25.455Z,3.70
2019-01-11T09:33:26.884Z,3.70
2019-01-11T09:36:26.259Z,3.80
2019-01-11T09:39:26.799Z,3.80
2019-01-11T09:42:32.063Z,3.80
2019-01-11T09:45:32.198Z,3.80
2019-01-11T09:48:31.591Z,3.90
2019-01-11T09:51:31.530Z,3.90
2019-01-11T09:54:30.915Z,3.90
2019-01-11T09:57:30.362Z,4.00
2019-01-11T10:00:31.347Z,4.00
2019-01-11T10:03:30.571Z,4.00
2019-01-11T10:06:31.798Z,4.00
2019-01-11T10:09:31.745Z,4.10
2019-01-11T10:12:31.191Z,4.10
2019-01-11T10:15:30.730Z,4.10
2019-01-11T10:18:30.743Z,4.20
2019-01-11T10:21:40.566Z,4.20
2019-01-11T10:24:40.153Z,4.20
2019-01-11T10:27:40.679Z,4.20
2019-01-11T10:30:39.916Z,4.30
2019-01-11T10:33:39.814Z,4.30
2019-01-11T10:36:41.565Z,4.30
2019-01-11T10:39:40.881Z,4.30
2019-01-11T10:42:41.866Z,4.40
2019-01-11T10:45:41.207Z,4.40
2019-01-11T10:48:40.566Z,4.40
2019-01-11T10:51:40.018Z,4.40
2019-01-11T10:54:42.545Z,4.50
2019-01-11T10:57:41.979Z,4.50
2019-01-11T11:00:42.635Z,4.50
2019-01-11T11:03:42.095Z,4.60
2019-01-11T11:06:46.185Z,4.60
2019-01-11T11:09:45.541Z,4.60
2019-01-11T11:12:44.866Z,4.60
2019-01-11T11:15:46.119Z,4.60
2019-01-11T11:18:45.270Z,4.60
2019-01-11T11:21:45.386Z,4.60
2019-01-11T11:24:44.698Z,4.60
2019-01-11T11:27:44.234Z,4.60
2019-01-11T11:30:43.693Z,4.70
2019-01-11T11:33:45.053Z,4.70
2019-01-11T11:36:45.177Z,4.70
2019-01-11T11:43:14.795Z,4.70
2019-01-11T11:46:22.087Z,4.80
2019-01-11T11:49:22.059Z,4.80
2019-01-11T11:52:21.853Z,4.90
2019-01-11T11:55:29.631Z,4.90
2019-01-11T11:58:29.756Z,4.90
2019-01-11T12:01:46.734Z,4.90
2019-01-11T12:04:48.009Z,5.00
2019-01-11T12:07:50.326Z,5.00
2019-01-11T12:10:49.807Z,5.00
2019-01-11T12:13:50.374Z,5.10
2019-01-11T12:16:52.082Z,5.10
2019-01-11T12:19:51.376Z,5.10
2019-01-11T12:22:50.690Z,5.20
2019-01-11T12:25:50.130Z,5.20
2019-01-11T12:28:49.558Z,5.20
2019-01-11T12:31:48.911Z,5.20
2019-01-11T12:34:48.188Z,5.20
2019-01-11T12:37:49.859Z,5.20
2019-01-11T12:40:49.254Z,5.20
2019-01-11T12:43:49.900Z,5.20
2019-01-11T12:46:50.250Z,5.20
2019-01-11T12:49:50.626Z,5.30
2019-01-11T12:52:49.963Z,5.30
2019-01-11T12:55:49.460Z,5.30
2019-01-11T12:58:48.888Z,5.30
2019-01-11T13:01:48.083Z,5.30
2019-01-11T13:04:47.992Z,5.30
2019-01-11T13:07:47.448Z,5.30
2019-01-11T13:10:48.729Z,5.30
2019-01-11T13:13:48.230Z,5.40
2019-01-11T13:16:48.415Z,5.40
2019-01-11T13:19:48.793Z,5.40
2019-01-11T13:22:48.584Z,5.40
2019-01-11T13:25:49.134Z,5.40
2019-01-11T13:28:49.037Z,5.40
2019-01-11T13:31:53.887Z,5.40
2019-01-11T13:34:53.149Z,5.40
2019-01-11T13:37:52.564Z,5.40
2019-01-11T13:40:51.985Z,5.40
2019-01-11T13:50:47.020Z,5.50
2019-01-11T13:53:47.104Z,5.50
2019-01-11T13:56:47.691Z,5.50
2019-01-11T13:59:47.326Z,5.50
2019-01-11T14:02:46.838Z,5.50
2019-01-11T14:05:46.313Z,5.50
2019-01-11T14:08:45.722Z,5.50
2019-01-11T14:11:45.163Z,5.50
2019-01-11T14:14:44.426Z,5.50
2019-01-11T14:17:44.291Z,5.50
2019-01-11T14:20:45.634Z,5.50
2019-01-11T14:23:45.915Z,5.50
2019-01-11T14:26:50.865Z,5.40
2019-01-11T14:29:50.889Z,5.40
2019-01-11T14:32:56.008Z,5.40
2019-01-11T14:35:55.514Z,5.40
2019-01-11T14:39:02.064Z,5.40
2019-01-11T14:42:06.213Z,5.40
2019-01-11T14:45:07.678Z,5.30
2019-01-11T14:48:07.475Z,5.30
2019-01-11T14:51:08.119Z,5.30
2019-01-11T14:54:13.661Z,5.20
2019-01-11T14:57:12.918Z,5.20
2019-01-11T15:00:17.899Z,5.20
2019-01-11T15:03:17.830Z,5.20
2019-01-11T15:06:22.986Z,5.20
2019-01-11T15:09:22.296Z,5.20
2019-01-11T15:12:25.867Z,5.20
2019-01-11T15:15:26.437Z,5.20
2019-01-11T15:18:25.857Z,5.10
2019-01-11T15:21:25.260Z,5.10
2019-01-11T15:24:24.869Z,5.10
2019-01-11T15:44:56.904Z,4.90
2019-01-11T15:47:57.058Z,4.90
2019-01-11T15:50:58.356Z,4.90
2019-01-11T15:54:00.517Z,4.90
2019-01-11T15:57:00.471Z,4.90
2019-01-11T16:00:01.860Z,4.80
2019-01-11T16:03:02.113Z,4.80
2019-01-11T16:06:12.623Z,4.80
2019-01-11T16:09:21.682Z,4.80
2019-01-11T16:12:22.221Z,4.80
2019-01-11T16:15:32.663Z,4.80
2019-01-11T16:18:32.758Z,4.70
2019-01-11T16:21:32.985Z,4.70
2019-01-11T16:24:33.845Z,4.70
2019-01-11T16:27:34.009Z,4.70
2019-01-11T16:30:35.362Z,4.70
2019-01-11T16:33:36.378Z,4.60
2019-01-11T16:36:37.582Z,4.60
2019-01-11T16:39:37.207Z,4.60
2019-01-11T16:42:42.816Z,4.60
2019-01-11T16:45:42.084Z,4.60
2019-01-11T16:48:43.971Z,4.60
2019-01-11T16:51:43.279Z,4.60
2019-01-11T16:54:44.524Z,4.60
2019-01-11T16:57:44.380Z,4.50
2019-01-11T17:00:47.546Z,4.60
2019-01-11T17:03:46.868Z,4.50
2019-01-11T17:06:46.266Z,4.50
2019-01-11T17:09:45.483Z,4.50
2019-01-11T17:12:45.208Z,4.50
2019-01-11T17:15:44.647Z,4.50
2019-01-11T17:18:44.238Z,4.50
2019-01-11T17:21:43.678Z,4.50
2019-01-11T17:24:44.043Z,4.50
2019-01-11T17:27:47.577Z,4.40
2019-01-11T17:30:46.858Z,4.40
2019-01-11T17:33:47.627Z,4.40
2019-01-11T17:36:47.690Z,4.40
2019-01-11T17:39:48.922Z,4.40
2019-01-11T17:42:48.176Z,4.40
2019-01-11T17:45:48.671Z,4.40
2019-01-11T17:48:48.374Z,4.40
2019-01-11T17:51:49.108Z,4.40
2019-01-11T17:54:48.315Z,4.40
2019-01-11T17:57:48.710Z,4.40
2019-01-11T18:00:48.153Z,4.30
2019-01-11T18:12:57.754Z,4.30
2019-01-11T18:15:57.951Z,4.30
2019-01-11T18:18:58.203Z,4.30
2019-01-11T18:21:57.897Z,4.30
2019-01-11T18:24:57.365Z,4.30
2019-01-11T18:27:56.671Z,4.30
2019-01-11T18:30:56.129Z,4.30
2019-01-11T18:33:56.506Z,4.20
2019-01-11T18:36:56.665Z,4.20
2019-01-11T18:39:57.812Z,4.20
2019-01-11T18:42:58.221Z,4.20
2019-01-11T18:45:57.616Z,4.20
2019-01-11T18:48:57.116Z,4.20
2019-01-11T18:51:56.602Z,4.20
2019-01-11T18:54:57.345Z,4.20
2019-01-11T18:57:57.324Z,4.20
2019-01-11T19:00:59.788Z,4.20
2019-01-11T19:03:59.302Z,4.20
2019-01-11T19:07:00.582Z,4.20
2019-01-11T19:09:59.949Z,4.20
2019-01-11T19:34:03.286Z,4.20
2019-01-11T19:37:05.926Z,4.20
2019-01-11T19:40:06.700Z,4.10
2019-01-11T19:43:06.005Z,4.20
2019-01-11T20:07:08.847Z,4.10
2019-01-11T20:10:15.794Z,4.10
2019-01-11T20:13:16.030Z,4.10
2019-01-11T20:16:16.506Z,4.10
2019-01-11T20:19:17.775Z,4.10
2019-01-11T20:22:17.397Z,4.10
2019-01-11T20:46:18.312Z,4.00
2019-01-11T20:49:19.373Z,4.10
2019-01-11T20:52:19.695Z,4.10
2019-01-11T20:55:21.429Z,4.00
2019-01-11T20:58:20.624Z,4.00
2019-01-11T21:01:21.153Z,4.00
2019-01-11T21:04:20.454Z,4.00
2019-01-11T21:07:20.837Z,4.00
2019-01-11T21:10:20.242Z,4.00
2019-01-11T21:13:23.862Z,4.00
2019-01-11T21:16:24.305Z,4.10
2019-01-11T21:19:23.518Z,4.00
2019-01-11T21:22:25.761Z,4.00
2019-01-11T21:25:25.560Z,4.00
2019-01-11T21:28:28.781Z,4.00
2019-01-11T21:31:28.111Z,4.00
2019-01-11T21:34:31.978Z,4.00
2019-01-11T21:37:32.237Z,4.00
2019-01-11T21:40:32.622Z,4.00
2019-01-11T21:43:32.891Z,4.00
2019-01-11T21:46:33.085Z,4.00
2019-01-11T21:49:32.457Z,4.00
2019-01-11T21:52:31.763Z,4.00
2019-01-11T21:55:32.863Z,4.00
2019-01-11T21:58:32.107Z,4.00
2019-01-11T22:01:32.544Z,4.00
2019-01-11T22:04:32.725Z,4.00
2019-01-11T22:07:33.231Z,4.00
2019-01-11T22:10:32.547Z,4.00
2019-01-11T22:13:37.992Z,4.00
2019-01-11T22:16:37.553Z,4.00
2019-01-11T22:19:38.031Z,4.00
2019-01-11T22:22:37.371Z,4.00
2019-01-11T22:25:38.549Z,4.00
2019-01-11T22:28:37.920Z,4.00
2019-01-11T22:31:41.754Z,4.00
2019-01-11T22:34:41.161Z,4.00
2019-01-11T22:37:40.630Z,4.00
2019-01-11T22:40:40.111Z,3.90
2019-01-11T22:43:39.535Z,4.00
2019-01-11T22:46:38.973Z,3.90
2019-01-11T22:49:39.832Z,4.00
2019-01-11T22:52:40.186Z,3.90
2019-01-11T22:55:40.425Z,4.00
2019-01-11T22:58:39.726Z,3.90
2019-01-11T23:01:49.523Z,3.90
2019-01-11T23:04:49.739Z,3.90
2019-01-11T23:07:55.717Z,3.90
2019-01-11T23:11:07.860Z,3.90
2019-01-11T23:14:08.130Z,3.90
2019-01-11T23:17:22.381Z,3.90
2019-01-11T23:20:21.744Z,3.90
2019-01-11T23:23:22.298Z,3.90
2019-01-11T23:26:21.518Z,3.90
2019-01-11T23:29:28.899Z,3.90
2019-01-11T23:32:28.359Z,3.90
2019-01-11T23:35:34.810Z,3.90
2019-01-11T23:38:35.717Z,3.90
2019-01-11T23:41:36.957Z,3.90
2019-01-11T23:44:36.977Z,3.90
2019-01-11T23:47:40.202Z,3.90
2019-01-11T23:50:39.725Z,3.90
2019-01-11T23:53:43.179Z,3.90
2019-01-11T23:56:42.487Z,3.90
2019-01-11T23:59:41.932Z,3.90
